sensor_id;sensor_type;location;lat;lon;timestamp;P1;durP1;ratioP1;P2;durP2;ratioP2
25525;SDS011;13424;48.424;11.258;2023-07-31T00:00:15;3.03;;;2.63;;
25525;SDS011;13424;48.424;11.258;2023-07-31T00:02:41;5.72;;;2.83;;
25525;SDS011;13424;48.424;11.258;2023-07-31T00:05:08;4.72;;;2.55;;
25525;SDS011;13424;48.424;11.258;2023-07-31T00:07:35;4.47;;;3.00;;
25525;SDS011;13424;48.424;11.258;2023-07-31T00:10:01;4.95;;;2.60;;
25525;SDS011;13424;48.424;11.258;2023-07-31T00:12:27;5.68;;;2.30;;
25525;SDS011;13424;48.424;11.258;2023-07-31T00:14:53;4.20;;;2.63;;
25525;SDS011;13424;48.424;11.258;2023-07-31T00:17:19;10.35;;;3.03;;
25525;SDS011;13424;48.424;11.258;2023-07-31T00:19:45;2.97;;;2.30;;
25525;SDS011;13424;48.424;11.258;2023-07-31T00:22:12;4.10;;;2.35;;
25525;SDS011;13424;48.424;11.258;2023-07-31T00:24:37;4.88;;;2.78;;
25525;SDS011;13424;48.424;11.258;2023-07-31T00:27:04;5.80;;;2.92;;
25525;SDS011;13424;48.424;11.258;2023-07-31T00:29:30;7.30;;;2.65;;
25525;SDS011;13424;48.424;11.258;2023-07-31T00:31:58;9.38;;;3.35;;
25525;SDS011;13424;48.424;11.258;2023-07-31T00:34:23;5.72;;;2.80;;
25525;SDS011;13424;48.424;11.258;2023-07-31T00:36:49;3.83;;;2.70;;
25525;SDS011;13424;48.424;11.258;2023-07-31T00:39:15;5.05;;;2.72;;
25525;SDS011;13424;48.424;11.258;2023-07-31T00:41:43;5.68;;;2.83;;
25525;SDS011;13424;48.424;11.258;2023-07-31T00:44:09;7.25;;;2.83;;
25525;SDS011;13424;48.424;11.258;2023-07-31T00:46:36;9.18;;;2.85;;
25525;SDS011;13424;48.424;11.258;2023-07-31T00:49:02;5.60;;;2.78;;
25525;SDS011;13424;48.424;11.258;2023-07-31T00:51:29;3.88;;;2.95;;
25525;SDS011;13424;48.424;11.258;2023-07-31T00:53:55;6.15;;;2.72;;
25525;SDS011;13424;48.424;11.258;2023-07-31T00:56:22;9.52;;;3.45;;
25525;SDS011;13424;48.424;11.258;2023-07-31T00:58:49;4.97;;;2.78;;
25525;SDS011;13424;48.424;11.258;2023-07-31T01:01:15;7.00;;;3.30;;
25525;SDS011;13424;48.424;11.258;2023-07-31T01:03:41;5.60;;;3.15;;
25525;SDS011;13424;48.424;11.258;2023-07-31T01:06:48;6.72;;;3.05;;
25525;SDS011;13424;48.424;11.258;2023-07-31T01:12:26;5.45;;;2.63;;
25525;SDS011;13424;48.424;11.258;2023-07-31T01:17:31;6.22;;;3.40;;
25525;SDS011;13424;48.424;11.258;2023-07-31T01:20:01;4.05;;;2.53;;
25525;SDS011;13424;48.424;11.258;2023-07-31T01:25:59;6.97;;;2.47;;
25525;SDS011;13424;48.424;11.258;2023-07-31T01:28:53;4.88;;;2.60;;
25525;SDS011;13424;48.424;11.258;2023-07-31T01:31:27;3.42;;;2.65;;
25525;SDS011;13424;48.424;11.258;2023-07-31T01:33:57;7.85;;;2.95;;
25525;SDS011;13424;48.424;11.258;2023-07-31T01:36:26;4.63;;;2.30;;
25525;SDS011;13424;48.424;11.258;2023-07-31T01:39:00;4.90;;;3.00;;
25525;SDS011;13424;48.424;11.258;2023-07-31T01:44:59;6.20;;;2.90;;
25525;SDS011;13424;48.424;11.258;2023-07-31T01:47:25;7.45;;;3.00;;
25525;SDS011;13424;48.424;11.258;2023-07-31T01:49:51;6.32;;;3.50;;
25525;SDS011;13424;48.424;11.258;2023-07-31T01:52:17;4.40;;;3.03;;
25525;SDS011;13424;48.424;11.258;2023-07-31T01:54:43;5.75;;;2.95;;
25525;SDS011;13424;48.424;11.258;2023-07-31T01:57:09;5.88;;;2.72;;
25525;SDS011;13424;48.424;11.258;2023-07-31T01:59:35;5.40;;;3.20;;
25525;SDS011;13424;48.424;11.258;2023-07-31T02:02:01;4.28;;;3.33;;
25525;SDS011;13424;48.424;11.258;2023-07-31T02:04:29;5.50;;;3.20;;
25525;SDS011;13424;48.424;11.258;2023-07-31T02:06:55;4.13;;;2.55;;
25525;SDS011;13424;48.424;11.258;2023-07-31T02:09:21;4.13;;;3.00;;
25525;SDS011;13424;48.424;11.258;2023-07-31T02:11:47;7.57;;;3.75;;
25525;SDS011;13424;48.424;11.258;2023-07-31T02:14:13;3.70;;;2.67;;
25525;SDS011;13424;48.424;11.258;2023-07-31T02:16:39;5.10;;;3.25;;
25525;SDS011;13424;48.424;11.258;2023-07-31T02:19:05;4.38;;;2.72;;
25525;SDS011;13424;48.424;11.258;2023-07-31T02:21:31;4.88;;;3.13;;
25525;SDS011;13424;48.424;11.258;2023-07-31T02:23:57;7.47;;;3.17;;
25525;SDS011;13424;48.424;11.258;2023-07-31T02:26:23;6.70;;;3.13;;
25525;SDS011;13424;48.424;11.258;2023-07-31T02:28:49;3.90;;;2.58;;
25525;SDS011;13424;48.424;11.258;2023-07-31T02:31:15;7.22;;;3.25;;
25525;SDS011;13424;48.424;11.258;2023-07-31T02:33:40;6.78;;;3.05;;
25525;SDS011;13424;48.424;11.258;2023-07-31T02:36:06;6.63;;;3.75;;
25525;SDS011;13424;48.424;11.258;2023-07-31T02:38:32;6.65;;;3.35;;
25525;SDS011;13424;48.424;11.258;2023-07-31T02:41:04;7.45;;;3.78;;
25525;SDS011;13424;48.424;11.258;2023-07-31T02:43:31;5.63;;;3.05;;
25525;SDS011;13424;48.424;11.258;2023-07-31T02:45:57;5.20;;;3.10;;
25525;SDS011;13424;48.424;11.258;2023-07-31T02:48:38;4.97;;;2.65;;
25525;SDS011;13424;48.424;11.258;2023-07-31T02:51:04;4.32;;;3.53;;
25525;SDS011;13424;48.424;11.258;2023-07-31T02:53:30;5.05;;;3.42;;
25525;SDS011;13424;48.424;11.258;2023-07-31T02:55:56;4.07;;;2.92;;
25525;SDS011;13424;48.424;11.258;2023-07-31T02:58:22;6.03;;;3.05;;
25525;SDS011;13424;48.424;11.258;2023-07-31T03:00:48;6.30;;;3.88;;
25525;SDS011;13424;48.424;11.258;2023-07-31T03:03:14;5.88;;;3.22;;
25525;SDS011;13424;48.424;11.258;2023-07-31T03:05:40;5.13;;;3.17;;
25525;SDS011;13424;48.424;11.258;2023-07-31T03:08:06;4.63;;;3.00;;
25525;SDS011;13424;48.424;11.258;2023-07-31T03:10:32;6.20;;;3.40;;
25525;SDS011;13424;48.424;11.258;2023-07-31T03:12:58;7.95;;;3.22;;
25525;SDS011;13424;48.424;11.258;2023-07-31T03:15:24;3.90;;;3.45;;
25525;SDS011;13424;48.424;11.258;2023-07-31T03:17:56;4.32;;;3.33;;
25525;SDS011;13424;48.424;11.258;2023-07-31T03:20:22;5.38;;;3.70;;
25525;SDS011;13424;48.424;11.258;2023-07-31T03:22:48;3.88;;;3.10;;
25525;SDS011;13424;48.424;11.258;2023-07-31T03:25:14;6.60;;;3.65;;
25525;SDS011;13424;48.424;11.258;2023-07-31T03:27:40;3.65;;;3.00;;
25525;SDS011;13424;48.424;11.258;2023-07-31T03:30:06;4.70;;;3.35;;
25525;SDS011;13424;48.424;11.258;2023-07-31T03:32:45;7.30;;;3.80;;
25525;SDS011;13424;48.424;11.258;2023-07-31T03:35:11;7.90;;;3.30;;
25525;SDS011;13424;48.424;11.258;2023-07-31T03:37:36;6.68;;;3.45;;
25525;SDS011;13424;48.424;11.258;2023-07-31T03:40:03;5.55;;;3.55;;
25525;SDS011;13424;48.424;11.258;2023-07-31T03:42:30;13.32;;;8.70;;
25525;SDS011;13424;48.424;11.258;2023-07-31T03:44:56;19.35;;;12.38;;
25525;SDS011;13424;48.424;11.258;2023-07-31T03:47:22;13.82;;;9.35;;
25525;SDS011;13424;48.424;11.258;2023-07-31T03:49:48;10.13;;;6.80;;
25525;SDS011;13424;48.424;11.258;2023-07-31T03:52:14;9.23;;;4.47;;
25525;SDS011;13424;48.424;11.258;2023-07-31T03:54:40;7.07;;;4.38;;
25525;SDS011;13424;48.424;11.258;2023-07-31T03:57:06;4.57;;;3.28;;
25525;SDS011;13424;48.424;11.258;2023-07-31T03:59:32;7.00;;;3.80;;
25525;SDS011;13424;48.424;11.258;2023-07-31T04:01:57;6.88;;;3.40;;
25525;SDS011;13424;48.424;11.258;2023-07-31T04:04:23;4.70;;;3.15;;
25525;SDS011;13424;48.424;11.258;2023-07-31T04:06:49;5.07;;;3.70;;
25525;SDS011;13424;48.424;11.258;2023-07-31T04:09:15;7.53;;;3.50;;
25525;SDS011;13424;48.424;11.258;2023-07-31T04:11:42;4.32;;;3.42;;
25525;SDS011;13424;48.424;11.258;2023-07-31T04:14:08;4.65;;;3.35;;
25525;SDS011;13424;48.424;11.258;2023-07-31T04:16:34;4.75;;;3.00;;
25525;SDS011;13424;48.424;11.258;2023-07-31T04:19:13;5.47;;;3.53;;
25525;SDS011;13424;48.424;11.258;2023-07-31T04:24:07;8.32;;;3.72;;
25525;SDS011;13424;48.424;11.258;2023-07-31T04:26:33;4.43;;;3.22;;
25525;SDS011;13424;48.424;11.258;2023-07-31T04:28:59;6.80;;;3.00;;
25525;SDS011;13424;48.424;11.258;2023-07-31T04:31:25;6.05;;;3.95;;
25525;SDS011;13424;48.424;11.258;2023-07-31T04:33:51;4.65;;;3.50;;
25525;SDS011;13424;48.424;11.258;2023-07-31T04:36:17;8.25;;;3.33;;
25525;SDS011;13424;48.424;11.258;2023-07-31T04:38:43;4.30;;;3.38;;
25525;SDS011;13424;48.424;11.258;2023-07-31T04:41:09;8.02;;;3.40;;
25525;SDS011;13424;48.424;11.258;2023-07-31T04:43:35;3.28;;;2.80;;
25525;SDS011;13424;48.424;11.258;2023-07-31T04:46:04;5.85;;;3.20;;
25525;SDS011;13424;48.424;11.258;2023-07-31T04:48:30;5.57;;;3.97;;
25525;SDS011;13424;48.424;11.258;2023-07-31T04:50:56;4.35;;;3.03;;
25525;SDS011;13424;48.424;11.258;2023-07-31T04:53:22;5.93;;;3.50;;
25525;SDS011;13424;48.424;11.258;2023-07-31T04:55:48;8.43;;;4.10;;
25525;SDS011;13424;48.424;11.258;2023-07-31T05:02:12;5.20;;;3.75;;
25525;SDS011;13424;48.424;11.258;2023-07-31T05:04:41;9.88;;;3.95;;
25525;SDS011;13424;48.424;11.258;2023-07-31T05:07:07;4.90;;;3.22;;
25525;SDS011;13424;48.424;11.258;2023-07-31T05:09:33;6.50;;;3.50;;
25525;SDS011;13424;48.424;11.258;2023-07-31T05:11:59;6.18;;;4.00;;
25525;SDS011;13424;48.424;11.258;2023-07-31T05:14:26;5.55;;;3.05;;
25525;SDS011;13424;48.424;11.258;2023-07-31T05:16:52;7.55;;;3.58;;
25525;SDS011;13424;48.424;11.258;2023-07-31T05:19:18;5.15;;;3.47;;
25525;SDS011;13424;48.424;11.258;2023-07-31T05:21:44;8.38;;;3.20;;
25525;SDS011;13424;48.424;11.258;2023-07-31T05:24:10;6.85;;;3.08;;
25525;SDS011;13424;48.424;11.258;2023-07-31T05:26:36;5.55;;;3.65;;
25525;SDS011;13424;48.424;11.258;2023-07-31T05:29:12;4.88;;;3.45;;
25525;SDS011;13424;48.424;11.258;2023-07-31T05:31:38;6.85;;;3.58;;
25525;SDS011;13424;48.424;11.258;2023-07-31T05:34:04;5.60;;;3.25;;
25525;SDS011;13424;48.424;11.258;2023-07-31T05:36:30;5.45;;;2.97;;
25525;SDS011;13424;48.424;11.258;2023-07-31T05:38:56;4.32;;;3.08;;
25525;SDS011;13424;48.424;11.258;2023-07-31T05:41:22;5.78;;;3.08;;
25525;SDS011;13424;48.424;11.258;2023-07-31T05:43:48;6.82;;;2.83;;
25525;SDS011;13424;48.424;11.258;2023-07-31T05:46:23;5.95;;;3.55;;
25525;SDS011;13424;48.424;11.258;2023-07-31T05:48:49;4.85;;;3.08;;
25525;SDS011;13424;48.424;11.258;2023-07-31T05:51:15;6.15;;;3.05;;
25525;SDS011;13424;48.424;11.258;2023-07-31T05:53:41;4.35;;;2.92;;
25525;SDS011;13424;48.424;11.258;2023-07-31T05:56:08;4.22;;;2.95;;
25525;SDS011;13424;48.424;11.258;2023-07-31T06:03:00;5.35;;;3.45;;
25525;SDS011;13424;48.424;11.258;2023-07-31T06:05:26;7.55;;;2.90;;
25525;SDS011;13424;48.424;11.258;2023-07-31T06:07:55;5.20;;;2.90;;
25525;SDS011;13424;48.424;11.258;2023-07-31T06:10:21;5.43;;;2.72;;
25525;SDS011;13424;48.424;11.258;2023-07-31T06:12:47;8.35;;;4.18;;
25525;SDS011;13424;48.424;11.258;2023-07-31T06:15:13;5.57;;;3.45;;
25525;SDS011;13424;48.424;11.258;2023-07-31T06:17:39;7.60;;;3.83;;
25525;SDS011;13424;48.424;11.258;2023-07-31T06:20:06;6.47;;;3.40;;
25525;SDS011;13424;48.424;11.258;2023-07-31T06:22:33;5.35;;;3.50;;
25525;SDS011;13424;48.424;11.258;2023-07-31T06:24:59;8.20;;;3.42;;
25525;SDS011;13424;48.424;11.258;2023-07-31T06:27:25;4.22;;;3.83;;
25525;SDS011;13424;48.424;11.258;2023-07-31T06:33:35;6.03;;;3.40;;
25525;SDS011;13424;48.424;11.258;2023-07-31T06:36:01;6.75;;;3.47;;
25525;SDS011;13424;48.424;11.258;2023-07-31T06:38:27;7.45;;;3.53;;
25525;SDS011;13424;48.424;11.258;2023-07-31T06:40:53;4.47;;;3.85;;
25525;SDS011;13424;48.424;11.258;2023-07-31T06:43:19;5.28;;;3.35;;
25525;SDS011;13424;48.424;11.258;2023-07-31T06:45:45;4.80;;;3.38;;
25525;SDS011;13424;48.424;11.258;2023-07-31T06:48:11;5.03;;;3.67;;
25525;SDS011;13424;48.424;11.258;2023-07-31T06:50:37;5.30;;;3.63;;
25525;SDS011;13424;48.424;11.258;2023-07-31T06:53:03;6.05;;;2.97;;
25525;SDS011;13424;48.424;11.258;2023-07-31T06:55:30;4.10;;;3.03;;
25525;SDS011;13424;48.424;11.258;2023-07-31T06:57:56;4.93;;;3.30;;
25525;SDS011;13424;48.424;11.258;2023-07-31T07:00:22;5.57;;;3.47;;
25525;SDS011;13424;48.424;11.258;2023-07-31T07:02:49;6.03;;;3.75;;
25525;SDS011;13424;48.424;11.258;2023-07-31T07:05:16;4.00;;;2.90;;
25525;SDS011;13424;48.424;11.258;2023-07-31T07:07:42;2.97;;;2.67;;
25525;SDS011;13424;48.424;11.258;2023-07-31T07:10:09;4.03;;;2.83;;
25525;SDS011;13424;48.424;11.258;2023-07-31T07:12:35;4.38;;;2.63;;
25525;SDS011;13424;48.424;11.258;2023-07-31T07:15:02;5.25;;;2.75;;
25525;SDS011;13424;48.424;11.258;2023-07-31T07:17:29;3.92;;;2.97;;
25525;SDS011;13424;48.424;11.258;2023-07-31T07:20:01;8.32;;;3.15;;
25525;SDS011;13424;48.424;11.258;2023-07-31T07:22:28;6.57;;;2.70;;
25525;SDS011;13424;48.424;11.258;2023-07-31T07:24:54;6.07;;;2.63;;
25525;SDS011;13424;48.424;11.258;2023-07-31T07:27:20;5.88;;;2.80;;
25525;SDS011;13424;48.424;11.258;2023-07-31T07:29:46;5.40;;;2.90;;
25525;SDS011;13424;48.424;11.258;2023-07-31T07:32:12;4.15;;;3.00;;
25525;SDS011;13424;48.424;11.258;2023-07-31T07:34:38;4.95;;;3.42;;
25525;SDS011;13424;48.424;11.258;2023-07-31T07:37:04;5.85;;;3.00;;
25525;SDS011;13424;48.424;11.258;2023-07-31T07:39:31;4.60;;;2.88;;
25525;SDS011;13424;48.424;11.258;2023-07-31T07:45:34;3.90;;;2.72;;
25525;SDS011;13424;48.424;11.258;2023-07-31T07:48:00;5.45;;;2.70;;
25525;SDS011;13424;48.424;11.258;2023-07-31T07:50:26;4.40;;;3.17;;
25525;SDS011;13424;48.424;11.258;2023-07-31T07:52:52;6.32;;;2.70;;
25525;SDS011;13424;48.424;11.258;2023-07-31T07:55:18;6.93;;;2.85;;
25525;SDS011;13424;48.424;11.258;2023-07-31T07:57:44;5.32;;;2.40;;
25525;SDS011;13424;48.424;11.258;2023-07-31T08:00:11;5.65;;;2.95;;
25525;SDS011;13424;48.424;11.258;2023-07-31T08:02:41;7.28;;;2.90;;
25525;SDS011;13424;48.424;11.258;2023-07-31T08:05:07;4.80;;;2.20;;
25525;SDS011;13424;48.424;11.258;2023-07-31T08:07:34;6.85;;;3.67;;
25525;SDS011;13424;48.424;11.258;2023-07-31T08:10:00;4.93;;;2.58;;
25525;SDS011;13424;48.424;11.258;2023-07-31T08:12:26;3.75;;;2.70;;
25525;SDS011;13424;48.424;11.258;2023-07-31T08:14:52;5.15;;;2.38;;
25525;SDS011;13424;48.424;11.258;2023-07-31T08:17:18;3.00;;;1.92;;
25525;SDS011;13424;48.424;11.258;2023-07-31T08:19:44;5.60;;;2.35;;
25525;SDS011;13424;48.424;11.258;2023-07-31T08:22:11;5.80;;;2.75;;
25525;SDS011;13424;48.424;11.258;2023-07-31T08:24:37;5.72;;;2.38;;
25525;SDS011;13424;48.424;11.258;2023-07-31T08:27:03;6.80;;;2.50;;
25525;SDS011;13424;48.424;11.258;2023-07-31T08:29:31;4.63;;;2.30;;
25525;SDS011;13424;48.424;11.258;2023-07-31T08:31:57;4.22;;;2.47;;
25525;SDS011;13424;48.424;11.258;2023-07-31T08:34:23;4.15;;;2.38;;
25525;SDS011;13424;48.424;11.258;2023-07-31T08:36:49;8.32;;;3.33;;
25525;SDS011;13424;48.424;11.258;2023-07-31T08:39:15;6.90;;;2.80;;
25525;SDS011;13424;48.424;11.258;2023-07-31T08:41:41;3.10;;;2.15;;
25525;SDS011;13424;48.424;11.258;2023-07-31T08:44:07;3.90;;;2.00;;
25525;SDS011;13424;48.424;11.258;2023-07-31T08:46:33;5.53;;;2.78;;
25525;SDS011;13424;48.424;11.258;2023-07-31T08:49:00;4.38;;;2.25;;
25525;SDS011;13424;48.424;11.258;2023-07-31T08:51:32;4.32;;;2.72;;
25525;SDS011;13424;48.424;11.258;2023-07-31T08:54:02;6.15;;;2.30;;
25525;SDS011;13424;48.424;11.258;2023-07-31T08:56:31;3.25;;;2.05;;
25525;SDS011;13424;48.424;11.258;2023-07-31T08:58:59;4.07;;;2.38;;
25525;SDS011;13424;48.424;11.258;2023-07-31T09:01:29;2.65;;;2.10;;
25525;SDS011;13424;48.424;11.258;2023-07-31T09:04:00;2.92;;;2.13;;
25525;SDS011;13424;48.424;11.258;2023-07-31T09:06:29;6.13;;;2.33;;
25525;SDS011;13424;48.424;11.258;2023-07-31T09:08:57;4.82;;;3.00;;
25525;SDS011;13424;48.424;11.258;2023-07-31T09:11:23;7.40;;;3.15;;
25525;SDS011;13424;48.424;11.258;2023-07-31T09:13:50;5.70;;;2.72;;
25525;SDS011;13424;48.424;11.258;2023-07-31T09:16:17;3.08;;;2.63;;
25525;SDS011;13424;48.424;11.258;2023-07-31T09:18:56;4.95;;;2.80;;
25525;SDS011;13424;48.424;11.258;2023-07-31T09:21:23;6.50;;;2.70;;
25525;SDS011;13424;48.424;11.258;2023-07-31T09:23:51;4.72;;;2.38;;
25525;SDS011;13424;48.424;11.258;2023-07-31T09:26:33;4.22;;;2.80;;
25525;SDS011;13424;48.424;11.258;2023-07-31T09:29:04;7.55;;;2.17;;
25525;SDS011;13424;48.424;11.258;2023-07-31T09:34:08;5.07;;;2.83;;
25525;SDS011;13424;48.424;11.258;2023-07-31T09:36:43;3.53;;;3.05;;
25525;SDS011;13424;48.424;11.258;2023-07-31T09:39:15;6.65;;;2.35;;
25525;SDS011;13424;48.424;11.258;2023-07-31T09:41:44;4.43;;;2.30;;
25525;SDS011;13424;48.424;11.258;2023-07-31T09:44:20;5.50;;;2.97;;
25525;SDS011;13424;48.424;11.258;2023-07-31T09:46:46;5.10;;;2.83;;
25525;SDS011;13424;48.424;11.258;2023-07-31T09:49:13;6.65;;;2.95;;
25525;SDS011;13424;48.424;11.258;2023-07-31T09:51:41;4.75;;;2.40;;
25525;SDS011;13424;48.424;11.258;2023-07-31T09:54:17;3.75;;;2.20;;
25525;SDS011;13424;48.424;11.258;2023-07-31T09:56:45;3.55;;;2.65;;
25525;SDS011;13424;48.424;11.258;2023-07-31T09:59:14;9.05;;;3.10;;
25525;SDS011;13424;48.424;11.258;2023-07-31T10:01:44;4.57;;;2.88;;
25525;SDS011;13424;48.424;11.258;2023-07-31T10:04:12;6.97;;;2.58;;
25525;SDS011;13424;48.424;11.258;2023-07-31T10:06:40;6.85;;;2.75;;
25525;SDS011;13424;48.424;11.258;2023-07-31T10:09:10;4.97;;;2.58;;
25525;SDS011;13424;48.424;11.258;2023-07-31T10:11:48;4.95;;;2.58;;
25525;SDS011;13424;48.424;11.258;2023-07-31T10:14:22;5.05;;;2.45;;
25525;SDS011;13424;48.424;11.258;2023-07-31T10:16:50;8.63;;;2.88;;
25525;SDS011;13424;48.424;11.258;2023-07-31T10:19:18;4.43;;;2.50;;
25525;SDS011;13424;48.424;11.258;2023-07-31T10:21:45;4.45;;;2.60;;
25525;SDS011;13424;48.424;11.258;2023-07-31T10:24:13;6.72;;;2.97;;
25525;SDS011;13424;48.424;11.258;2023-07-31T10:26:41;7.57;;;2.78;;
25525;SDS011;13424;48.424;11.258;2023-07-31T10:29:12;3.78;;;2.85;;
25525;SDS011;13424;48.424;11.258;2023-07-31T10:31:39;8.90;;;2.97;;
25525;SDS011;13424;48.424;11.258;2023-07-31T10:34:06;4.25;;;3.05;;
25525;SDS011;13424;48.424;11.258;2023-07-31T10:36:32;3.53;;;2.60;;
25525;SDS011;13424;48.424;11.258;2023-07-31T10:38:59;3.58;;;2.30;;
25525;SDS011;13424;48.424;11.258;2023-07-31T10:41:31;4.30;;;2.67;;
25525;SDS011;13424;48.424;11.258;2023-07-31T10:43:58;6.60;;;2.70;;
25525;SDS011;13424;48.424;11.258;2023-07-31T10:46:32;9.88;;;2.80;;
25525;SDS011;13424;48.424;11.258;2023-07-31T10:48:59;6.55;;;2.85;;
25525;SDS011;13424;48.424;11.258;2023-07-31T10:51:34;13.18;;;2.63;;
25525;SDS011;13424;48.424;11.258;2023-07-31T10:54:14;12.48;;;3.08;;
25525;SDS011;13424;48.424;11.258;2023-07-31T10:56:46;4.60;;;3.20;;
25525;SDS011;13424;48.424;11.258;2023-07-31T10:59:15;11.68;;;3.10;;
25525;SDS011;13424;48.424;11.258;2023-07-31T11:01:56;3.75;;;2.47;;
25525;SDS011;13424;48.424;11.258;2023-07-31T11:04:26;3.75;;;2.38;;
25525;SDS011;13424;48.424;11.258;2023-07-31T11:07:00;9.30;;;2.90;;
25525;SDS011;13424;48.424;11.258;2023-07-31T11:09:32;4.10;;;2.60;;
25525;SDS011;13424;48.424;11.258;2023-07-31T11:11:59;11.50;;;3.97;;
25525;SDS011;13424;48.424;11.258;2023-07-31T11:14:25;5.35;;;2.38;;
25525;SDS011;13424;48.424;11.258;2023-07-31T11:16:51;2.92;;;2.47;;
25525;SDS011;13424;48.424;11.258;2023-07-31T11:19:24;2.35;;;2.15;;
25525;SDS011;13424;48.424;11.258;2023-07-31T11:21:51;8.00;;;2.67;;
25525;SDS011;13424;48.424;11.258;2023-07-31T11:24:18;3.78;;;2.80;;
25525;SDS011;13424;48.424;11.258;2023-07-31T11:26:53;4.72;;;2.70;;
25525;SDS011;13424;48.424;11.258;2023-07-31T11:29:20;4.60;;;2.70;;
25525;SDS011;13424;48.424;11.258;2023-07-31T11:31:47;4.13;;;2.50;;
25525;SDS011;13424;48.424;11.258;2023-07-31T11:34:14;6.07;;;2.70;;
25525;SDS011;13424;48.424;11.258;2023-07-31T11:36:40;3.92;;;2.65;;
25525;SDS011;13424;48.424;11.258;2023-07-31T11:39:17;6.72;;;2.92;;
25525;SDS011;13424;48.424;11.258;2023-07-31T11:41:43;5.85;;;2.63;;
25525;SDS011;13424;48.424;11.258;2023-07-31T11:44:09;4.05;;;2.25;;
25525;SDS011;13424;48.424;11.258;2023-07-31T11:50:02;8.35;;;2.78;;
25525;SDS011;13424;48.424;11.258;2023-07-31T11:52:39;3.28;;;2.17;;
25525;SDS011;13424;48.424;11.258;2023-07-31T11:55:09;4.60;;;2.30;;
25525;SDS011;13424;48.424;11.258;2023-07-31T11:57:36;3.33;;;2.50;;
25525;SDS011;13424;48.424;11.258;2023-07-31T12:00:05;4.85;;;2.78;;
25525;SDS011;13424;48.424;11.258;2023-07-31T12:02:34;3.67;;;2.10;;
25525;SDS011;13424;48.424;11.258;2023-07-31T12:05:01;5.45;;;2.50;;
25525;SDS011;13424;48.424;11.258;2023-07-31T12:07:27;6.65;;;2.80;;
25525;SDS011;13424;48.424;11.258;2023-07-31T12:10:24;6.85;;;2.83;;
25525;SDS011;13424;48.424;11.258;2023-07-31T12:12:57;4.25;;;3.03;;
25525;SDS011;13424;48.424;11.258;2023-07-31T12:15:38;6.20;;;2.28;;
25525;SDS011;13424;48.424;11.258;2023-07-31T12:18:13;4.95;;;2.80;;
25525;SDS011;13424;48.424;11.258;2023-07-31T12:20:55;4.15;;;2.72;;
25525;SDS011;13424;48.424;11.258;2023-07-31T12:23:31;4.38;;;2.80;;
25525;SDS011;13424;48.424;11.258;2023-07-31T12:31:20;6.57;;;2.60;;
25525;SDS011;13424;48.424;11.258;2023-07-31T12:33:49;4.72;;;2.55;;
25525;SDS011;13424;48.424;11.258;2023-07-31T12:36:18;4.55;;;3.22;;
25525;SDS011;13424;48.424;11.258;2023-07-31T12:38:52;3.67;;;2.45;;
25525;SDS011;13424;48.424;11.258;2023-07-31T12:41:21;6.07;;;3.30;;
25525;SDS011;13424;48.424;11.258;2023-07-31T12:43:47;3.50;;;2.25;;
25525;SDS011;13424;48.424;11.258;2023-07-31T12:46:13;4.95;;;2.30;;
25525;SDS011;13424;48.424;11.258;2023-07-31T12:48:40;3.88;;;2.45;;
25525;SDS011;13424;48.424;11.258;2023-07-31T12:51:06;5.50;;;2.72;;
25525;SDS011;13424;48.424;11.258;2023-07-31T12:53:32;7.22;;;3.00;;
25525;SDS011;13424;48.424;11.258;2023-07-31T12:55:58;5.53;;;2.65;;
25525;SDS011;13424;48.424;11.258;2023-07-31T12:58:24;5.43;;;2.75;;
25525;SDS011;13424;48.424;11.258;2023-07-31T13:00:50;5.75;;;2.50;;
25525;SDS011;13424;48.424;11.258;2023-07-31T13:03:16;5.35;;;2.47;;
25525;SDS011;13424;48.424;11.258;2023-07-31T13:05:44;2.97;;;2.28;;
25525;SDS011;13424;48.424;11.258;2023-07-31T13:08:09;4.68;;;2.58;;
25525;SDS011;13424;48.424;11.258;2023-07-31T13:10:37;4.22;;;2.42;;
25525;SDS011;13424;48.424;11.258;2023-07-31T13:13:03;3.63;;;2.60;;
25525;SDS011;13424;48.424;11.258;2023-07-31T13:15:29;4.07;;;2.80;;
25525;SDS011;13424;48.424;11.258;2023-07-31T13:17:55;3.80;;;3.08;;
25525;SDS011;13424;48.424;11.258;2023-07-31T13:20:21;6.47;;;3.38;;
25525;SDS011;13424;48.424;11.258;2023-07-31T13:22:47;9.45;;;3.25;;
25525;SDS011;13424;48.424;11.258;2023-07-31T13:25:13;6.68;;;3.05;;
25525;SDS011;13424;48.424;11.258;2023-07-31T13:27:39;3.70;;;2.33;;
25525;SDS011;13424;48.424;11.258;2023-07-31T13:30:05;3.35;;;2.25;;
25525;SDS011;13424;48.424;11.258;2023-07-31T13:32:32;4.93;;;2.70;;
25525;SDS011;13424;48.424;11.258;2023-07-31T13:34:58;5.53;;;2.90;;
25525;SDS011;13424;48.424;11.258;2023-07-31T13:37:24;4.28;;;2.30;;
25525;SDS011;13424;48.424;11.258;2023-07-31T13:39:50;5.38;;;2.63;;
25525;SDS011;13424;48.424;11.258;2023-07-31T13:42:16;8.55;;;2.90;;
25525;SDS011;13424;48.424;11.258;2023-07-31T13:44:42;5.18;;;2.92;;
25525;SDS011;13424;48.424;11.258;2023-07-31T13:47:09;4.43;;;3.05;;
25525;SDS011;13424;48.424;11.258;2023-07-31T13:49:35;3.97;;;2.60;;
25525;SDS011;13424;48.424;11.258;2023-07-31T13:52:02;6.75;;;2.60;;
25525;SDS011;13424;48.424;11.258;2023-07-31T13:54:28;6.40;;;3.15;;
25525;SDS011;13424;48.424;11.258;2023-07-31T13:56:54;6.43;;;2.70;;
25525;SDS011;13424;48.424;11.258;2023-07-31T13:59:20;5.65;;;2.85;;
25525;SDS011;13424;48.424;11.258;2023-07-31T14:01:47;4.57;;;2.70;;
25525;SDS011;13424;48.424;11.258;2023-07-31T14:04:13;4.75;;;2.55;;
25525;SDS011;13424;48.424;11.258;2023-07-31T14:06:39;4.97;;;3.25;;
25525;SDS011;13424;48.424;11.258;2023-07-31T14:09:05;5.50;;;3.30;;
25525;SDS011;13424;48.424;11.258;2023-07-31T14:11:31;6.72;;;4.05;;
25525;SDS011;13424;48.424;11.258;2023-07-31T14:13:58;4.13;;;2.72;;
25525;SDS011;13424;48.424;11.258;2023-07-31T14:16:24;3.38;;;2.80;;
25525;SDS011;13424;48.424;11.258;2023-07-31T14:18:50;3.90;;;2.65;;
25525;SDS011;13424;48.424;11.258;2023-07-31T14:21:16;4.30;;;2.92;;
25525;SDS011;13424;48.424;11.258;2023-07-31T14:26:57;4.00;;;2.65;;
25525;SDS011;13424;48.424;11.258;2023-07-31T14:29:23;3.97;;;2.88;;
25525;SDS011;13424;48.424;11.258;2023-07-31T14:32:08;4.45;;;2.75;;
25525;SDS011;13424;48.424;11.258;2023-07-31T14:34:34;6.00;;;3.50;;
25525;SDS011;13424;48.424;11.258;2023-07-31T14:37:00;4.07;;;2.65;;
25525;SDS011;13424;48.424;11.258;2023-07-31T14:39:26;6.32;;;3.03;;
25525;SDS011;13424;48.424;11.258;2023-07-31T14:41:51;4.60;;;3.00;;
25525;SDS011;13424;48.424;11.258;2023-07-31T14:44:20;7.53;;;3.53;;
25525;SDS011;13424;48.424;11.258;2023-07-31T14:46:46;9.40;;;3.80;;
25525;SDS011;13424;48.424;11.258;2023-07-31T14:49:12;8.40;;;4.60;;
25525;SDS011;13424;48.424;11.258;2023-07-31T14:51:38;11.32;;;3.67;;
25525;SDS011;13424;48.424;11.258;2023-07-31T14:54:04;6.20;;;3.40;;
25525;SDS011;13424;48.424;11.258;2023-07-31T14:56:30;5.45;;;2.92;;
25525;SDS011;13424;48.424;11.258;2023-07-31T14:58:56;4.70;;;2.92;;
25525;SDS011;13424;48.424;11.258;2023-07-31T15:01:23;6.10;;;2.92;;
25525;SDS011;13424;48.424;11.258;2023-07-31T15:03:51;4.68;;;2.60;;
25525;SDS011;13424;48.424;11.258;2023-07-31T15:06:16;4.55;;;2.83;;
25525;SDS011;13424;48.424;11.258;2023-07-31T15:08:42;6.18;;;3.17;;
25525;SDS011;13424;48.424;11.258;2023-07-31T15:11:09;8.98;;;3.05;;
25525;SDS011;13424;48.424;11.258;2023-07-31T15:13:36;5.35;;;3.53;;
25525;SDS011;13424;48.424;11.258;2023-07-31T15:16:02;4.50;;;3.03;;
25525;SDS011;13424;48.424;11.258;2023-07-31T15:18:28;7.88;;;3.00;;
25525;SDS011;13424;48.424;11.258;2023-07-31T15:20:54;4.75;;;3.05;;